sensor_id;sensor_type;location;lat;lon;timestamp;pressure;altitude;pressure_sealevel;temperature;humidity
24651;BME280;12783;48.824;8.662;2022-07-04T00:00:50;116043.09;;;20.69;100.00
24651;BME280;12783;48.824;8.662;2022-07-04T00:03:16;118137.38;;;20.68;100.00
24651;BME280;12783;48.824;8.662;2022-07-04T00:05:43;117084.56;;;20.66;100.00
24651;BME280;12783;48.824;8.662;2022-07-04T00:08:10;118483.00;;;20.66;100.00
24651;BME280;12783;48.824;8.662;2022-07-04T00:10:37;118127.25;;;20.63;100.00
24651;BME280;12783;48.824;8.662;2022-07-04T00:13:04;121608.47;;;20.55;100.00
24651;BME280;12783;48.824;8.662;2022-07-04T00:15:32;124044.91;;;20.48;100.00
24651;BME280;12783;48.824;8.662;2022-07-04T00:17:59;125789.50;;;20.45;100.00
24651;BME280;12783;48.824;8.662;2022-07-04T00:20:26;126839.44;;;20.44;100.00
24651;BME280;12783;48.824;8.662;2022-07-04T00:22:52;128235.75;;;20.42;100.00
24651;BME280;12783;48.824;8.662;2022-07-04T00:25:19;129975.38;;;20.36;100.00
24651;BME280;12783;48.824;8.662;2022-07-04T00:27:46;129959.72;;;20.29;100.00
24651;BME280;12783;48.824;8.662;2022-07-04T00:30:13;134504.41;;;20.21;100.00
24651;BME280;12783;48.824;8.662;2022-07-04T00:32:40;136590.06;;;20.12;100.00
24651;BME280;12783;48.824;8.662;2022-07-04T00:35:08;135551.81;;;20.19;100.00
24651;BME280;12783;48.824;8.662;2022-07-04T00:37:35;136233.06;;;20.10;100.00
24651;BME280;12783;48.824;8.662;2022-07-04T00:40:02;136593.59;;;20.14;100.00
24651;BME280;12783;48.824;8.662;2022-07-04T00:42:29;139394.59;;;20.10;100.00
24651;BME280;12783;48.824;8.662;2022-07-04T00:44:56;137643.75;;;20.12;100.00
24651;BME280;12783;48.824;8.662;2022-07-04T00:47:23;138690.59;;;20.09;100.00
24651;BME280;12783;48.824;8.662;2022-07-04T00:49:50;140091.50;;;20.07;100.00
24651;BME280;12783;48.824;8.662;2022-07-04T00:52:17;140441.81;;;20.07;100.00
24651;BME280;12783;48.824;8.662;2022-07-04T00:54:45;139723.28;;;20.00;100.00
24651;BME280;12783;48.824;8.662;2022-07-04T00:57:13;140753.56;;;19.90;100.00
24651;BME280;12783;48.824;8.662;2022-07-04T00:59:40;141456.56;;;19.90;100.00
24651;BME280;12783;48.824;8.662;2022-07-04T01:02:07;143217.06;;;19.91;100.00
24651;BME280;12783;48.824;8.662;2022-07-04T01:04:35;142860.47;;;19.89;100.00
24651;BME280;12783;48.824;8.662;2022-07-04T01:07:03;143529.44;;;19.74;100.00
24651;BME280;12783;48.824;8.662;2022-07-04T01:09:30;145956.75;;;19.60;100.00
24651;BME280;12783;48.824;8.662;2022-07-04T01:11:57;147022.44;;;19.64;100.00
24651;BME280;12783;48.824;8.662;2022-07-04T01:14:24;146667.97;;;19.63;100.00
24651;BME280;12783;48.824;8.662;2022-07-04T01:16:51;147019.88;;;19.63;100.00
24651;BME280;12783;48.824;8.662;2022-07-04T01:19:17;147019.88;;;19.63;100.00
24651;BME280;12783;48.824;8.662;2022-07-04T01:21:44;148060.59;;;19.57;100.00
24651;BME280;12783;48.824;8.662;2022-07-04T01:24:12;147721.28;;;19.62;100.00
24651;BME280;12783;48.824;8.662;2022-07-04T01:26:41;148412.63;;;19.57;100.00
24651;BME280;12783;48.824;8.662;2022-07-04T01:29:08;149109.09;;;19.54;100.00
24651;BME280;12783;48.824;8.662;2022-07-04T01:31:35;151874.84;;;19.34;100.00
24651;BME280;12783;48.824;8.662;2022-07-04T01:34:02;152563.81;;;19.26;100.00
24651;BME280;12783;48.824;8.662;2022-07-04T01:36:29;152571.56;;;19.30;100.00
24651;BME280;12783;48.824;8.662;2022-07-04T01:38:55;152566.31;;;19.28;100.00
24651;BME280;12783;48.824;8.662;2022-07-04T01:41:23;152571.56;;;19.30;100.00
24651;BME280;12783;48.824;8.662;2022-07-04T01:43:50;152566.31;;;19.28;100.00
24651;BME280;12783;48.824;8.662;2022-07-04T01:46:17;152568.91;;;19.29;100.00
24651;BME280;12783;48.824;8.662;2022-07-04T01:48:44;152558.63;;;19.24;100.00
24651;BME280;12783;48.824;8.662;2022-07-04T01:51:11;152578.22;;;19.32;100.00
24651;BME280;12783;48.824;8.662;2022-07-04T01:53:37;152537.72;;;19.16;100.00
24651;BME280;12783;48.824;8.662;2022-07-04T01:56:04;152539.00;;;19.17;100.00
24651;BME280;12783;48.824;8.662;2022-07-04T01:58:31;152525.91;;;19.12;100.00
24651;BME280;12783;48.824;8.662;2022-07-04T02:00:59;152518.06;;;19.08;100.00
24651;BME280;12783;48.824;8.662;2022-07-04T02:03:45;152474.97;;;18.92;100.00
24651;BME280;12783;48.824;8.662;2022-07-04T02:06:12;152484.13;;;18.95;100.00
24651;BME280;12783;48.824;8.662;2022-07-04T02:08:39;152454.06;;;18.83;100.00
24651;BME280;12783;48.824;8.662;2022-07-04T02:11:24;152465.84;;;18.88;100.00
24651;BME280;12783;48.824;8.662;2022-07-04T02:13:51;152447.53;;;18.81;100.00
24651;BME280;12783;48.824;8.662;2022-07-04T02:16:18;152422.66;;;18.71;100.00
24651;BME280;12783;48.824;8.662;2022-07-04T02:18:45;152403.09;;;18.63;100.00
24651;BME280;12783;48.824;8.662;2022-07-04T02:21:12;152418.75;;;18.70;100.00
24651;BME280;12783;48.824;8.662;2022-07-04T02:23:39;152404.38;;;18.64;100.00
24651;BME280;12783;48.824;8.662;2022-07-04T02:26:06;152404.38;;;18.64;100.00
24651;BME280;12783;48.824;8.662;2022-07-04T02:28:33;152354.75;;;18.45;100.00
24651;BME280;12783;48.824;8.662;2022-07-04T02:31:00;152348.22;;;18.42;100.00
24651;BME280;12783;48.824;8.662;2022-07-04T02:33:27;152327.31;;;18.34;100.00
24651;BME280;12783;48.824;8.662;2022-07-04T02:35:53;152335.16;;;18.37;100.00
24651;BME280;12783;48.824;8.662;2022-07-04T02:38:20;152324.72;;;18.33;100.00
24651;BME280;12783;48.824;8.662;2022-07-04T02:40:47;152318.19;;;18.30;100.00
24651;BME280;12783;48.824;8.662;2022-07-04T02:43:14;152314.28;;;18.29;100.00
24651;BME280;12783;48.824;8.662;2022-07-04T02:45:41;152307.75;;;18.26;100.00
24651;BME280;12783;48.824;8.662;2022-07-04T02:48:07;152299.91;;;18.23;100.00
24651;BME280;12783;48.824;8.662;2022-07-04T02:50:34;152293.38;;;18.21;100.00
24651;BME280;12783;48.824;8.662;2022-07-04T02:53:01;152293.38;;;18.21;100.00
24651;BME280;12783;48.824;8.662;2022-07-04T02:55:28;152309.03;;;18.27;100.00
24651;BME280;12783;48.824;8.662;2022-07-04T02:57:55;152292.06;;;18.20;100.00
24651;BME280;12783;48.824;8.662;2022-07-04T03:00:22;152285.53;;;18.17;100.00
24651;BME280;12783;48.824;8.662;2022-07-04T03:02:48;152302.50;;;18.24;100.00
24651;BME280;12783;48.824;8.662;2022-07-04T03:05:15;152297.25;;;18.22;100.00
24651;BME280;12783;48.824;8.662;2022-07-04T03:07:43;152284.25;;;18.17;100.00
24651;BME280;12783;48.824;8.662;2022-07-04T03:11:03;152285.53;;;18.17;100.00
24651;BME280;12783;48.824;8.662;2022-07-04T03:17:49;152265.94;;;18.10;100.00
24651;BME280;12783;48.824;8.662;2022-07-04T03:20:16;152247.66;;;18.03;100.00
24651;BME280;12783;48.824;8.662;2022-07-04T03:22:43;152245.06;;;18.02;100.00
24651;BME280;12783;48.824;8.662;2022-07-04T03:25:10;152229.41;;;17.96;100.00
24651;BME280;12783;48.824;8.662;2022-07-04T03:27:36;152218.91;;;17.91;100.00
24651;BME280;12783;48.824;8.662;2022-07-04T03:30:04;152217.63;;;17.91;100.00
24651;BME280;12783;48.824;8.662;2022-07-04T03:32:31;152183.69;;;17.78;100.00
24651;BME280;12783;48.824;8.662;2022-07-04T03:34:58;148427.06;;;17.64;100.00
24651;BME280;12783;48.824;8.662;2022-07-04T03:37:25;146245.53;;;17.69;100.00
24651;BME280;12783;48.824;8.662;2022-07-04T03:39:52;144324.53;;;17.71;100.00
24651;BME280;12783;48.824;8.662;2022-07-04T03:42:18;147100.41;;;17.70;100.00
24651;BME280;12783;48.824;8.662;2022-07-04T03:44:45;148286.31;;;17.76;100.00
24651;BME280;12783;48.824;8.662;2022-07-04T03:47:13;148512.88;;;17.75;100.00
24651;BME280;12783;48.824;8.662;2022-07-04T03:49:40;146125.41;;;17.67;100.00
24651;BME280;12783;48.824;8.662;2022-07-04T03:52:07;146982.16;;;17.65;100.00
24651;BME280;12783;48.824;8.662;2022-07-04T03:54:34;147764.38;;;17.60;100.00
24651;BME280;12783;48.824;8.662;2022-07-04T03:57:01;149979.38;;;17.72;100.00
24651;BME280;12783;48.824;8.662;2022-07-04T03:59:27;151173.25;;;17.70;100.00
24651;BME280;12783;48.824;8.662;2022-07-04T04:01:54;147633.28;;;17.71;100.00
24651;BME280;12783;48.824;8.662;2022-07-04T04:04:21;149090.66;;;17.64;100.00
24651;BME280;12783;48.824;8.662;2022-07-04T04:07:07;149892.28;;;17.68;100.00
24651;BME280;12783;48.824;8.662;2022-07-04T04:09:34;151801.03;;;17.75;100.00
24651;BME280;12783;48.824;8.662;2022-07-04T04:12:01;152195.41;;;17.82;100.00
24651;BME280;12783;48.824;8.662;2022-07-04T04:14:28;152213.72;;;17.89;100.00
24651;BME280;12783;48.824;8.662;2022-07-04T04:16:54;152217.63;;;17.91;100.00
24651;BME280;12783;48.824;8.662;2022-07-04T04:19:21;152241.13;;;18.00;100.00
24651;BME280;12783;48.824;8.662;2022-07-04T04:21:48;152250.25;;;18.04;100.00
24651;BME280;12783;48.824;8.662;2022-07-04T04:24:15;152292.06;;;18.20;100.00
24651;BME280;12783;48.824;8.662;2022-07-04T04:26:42;152263.34;;;18.09;100.00
24651;BME280;12783;48.824;8.662;2022-07-04T04:29:08;152260.72;;;18.08;100.00
24651;BME280;12783;48.824;8.662;2022-07-04T04:31:35;152276.41;;;18.14;100.00
24651;BME280;12783;48.824;8.662;2022-07-04T04:34:02;152271.16;;;18.12;100.00
24651;BME280;12783;48.824;8.662;2022-07-04T04:36:29;152289.44;;;18.19;100.00
24651;BME280;12783;48.824;8.662;2022-07-04T04:38:56;152305.09;;;18.25;100.00
24651;BME280;12783;48.824;8.662;2022-07-04T04:41:23;152344.28;;;18.40;100.00
24651;BME280;12783;48.824;8.662;2022-07-04T04:43:49;152341.69;;;18.39;100.00
24651;BME280;12783;48.824;8.662;2022-07-04T04:46:20;151979.38;;;18.36;100.00
24651;BME280;12783;48.824;8.662;2022-07-04T04:48:47;151614.66;;;18.31;100.00
24651;BME280;12783;48.824;8.662;2022-07-04T04:51:14;150946.41;;;18.45;100.00
24651;BME280;12783;48.824;8.662;2022-07-04T04:53:41;146786.88;;;18.69;100.00
24651;BME280;12783;48.824;8.662;2022-07-04T04:56:07;143327.75;;;18.91;100.00
24651;BME280;12783;48.824;8.662;2022-07-04T04:58:34;140888.59;;;18.98;100.00
24651;BME280;12783;48.824;8.662;2022-07-04T05:01:01;139164.03;;;19.11;100.00
24651;BME280;12783;48.824;8.662;2022-07-04T05:03:49;138812.00;;;19.11;100.00
24651;BME280;12783;48.824;8.662;2022-07-04T05:06:16;139130.66;;;18.97;100.00
24651;BME280;12783;48.824;8.662;2022-07-04T05:08:43;141257.78;;;19.06;100.00
24651;BME280;12783;48.824;8.662;2022-07-04T05:11:10;141551.75;;;18.82;100.00
24651;BME280;12783;48.824;8.662;2022-07-04T05:13:37;141246.84;;;19.01;100.00
24651;BME280;12783;48.824;8.662;2022-07-04T05:16:04;140535.25;;;18.97;100.00
24651;BME280;12783;48.824;8.662;2022-07-04T05:18:31;139443.13;;;18.80;100.00
24651;BME280;12783;48.824;8.662;2022-07-04T05:20:59;141930.72;;;18.94;100.00
24651;BME280;12783;48.824;8.662;2022-07-04T05:23:25;141278.31;;;19.15;100.00
24651;BME280;12783;48.824;8.662;2022-07-04T05:25:52;139863.47;;;19.10;100.00
24651;BME280;12783;48.824;8.662;2022-07-04T05:28:19;137726.59;;;18.96;100.00
24651;BME280;12783;48.824;8.662;2022-07-04T05:30:46;139859.84;;;19.08;100.00
24651;BME280;12783;48.824;8.662;2022-07-04T05:33:13;134289.91;;;19.26;100.00
24651;BME280;12783;48.824;8.662;2022-07-04T05:35:40;132913.44;;;19.38;100.00
24651;BME280;12783;48.824;8.662;2022-07-04T05:38:07;130831.91;;;19.47;100.00
24651;BME280;12783;48.824;8.662;2022-07-04T05:40:34;130535.50;;;19.71;100.00
24651;BME280;12783;48.824;8.662;2022-07-04T05:43:01;130910.56;;;19.83;100.00
24651;BME280;12783;48.824;8.662;2022-07-04T05:45:27;121841.06;;;19.97;100.00
24651;BME280;12783;48.824;8.662;2022-07-04T05:47:54;116641.66;;;20.18;100.00
24651;BME280;12783;48.824;8.662;2022-07-04T05:50:21;118659.03;;;19.79;100.00
24651;BME280;12783;48.824;8.662;2022-07-04T05:52:48;124177.19;;;19.44;100.00
24651;BME280;12783;48.824;8.662;2022-07-04T05:55:15;133586.78;;;19.25;100.00
24651;BME280;12783;48.824;8.662;2022-07-04T05:57:42;133574.16;;;19.20;100.00
24651;BME280;12783;48.824;8.662;2022-07-04T06:00:11;136384.00;;;19.22;100.00
24651;BME280;12783;48.824;8.662;2022-07-04T06:02:38;141662.25;;;19.28;100.00
24651;BME280;12783;48.824;8.662;2022-07-04T06:05:06;134315.28;;;19.38;100.00
24651;BME280;12783;48.824;8.662;2022-07-04T06:07:33;133259.25;;;19.36;100.00
24651;BME280;12783;48.824;8.662;2022-07-04T06:09:59;134995.56;;;19.28;100.00
24651;BME280;12783;48.824;8.662;2022-07-04T06:12:26;136729.97;;;19.20;100.00
24651;BME280;12783;48.824;8.662;2022-07-04T06:14:53;139922.25;;;19.35;100.00
24651;BME280;12783;48.824;8.662;2022-07-04T06:17:20;139585.56;;;19.41;100.00
24651;BME280;12783;48.824;8.662;2022-07-04T06:19:47;134698.22;;;19.52;100.00
24651;BME280;12783;48.824;8.662;2022-07-04T06:22:14;136474.13;;;19.62;100.00
24651;BME280;12783;48.824;8.662;2022-07-04T06:24:41;136499.91;;;19.73;100.00
24651;BME280;12783;48.824;8.662;2022-07-04T06:27:08;134714.38;;;19.59;100.00
24651;BME280;12783;48.824;8.662;2022-07-04T06:29:35;135014.13;;;19.37;100.00
24651;BME280;12783;48.824;8.662;2022-07-04T06:32:03;136018.19;;;19.16;100.00
24651;BME280;12783;48.824;8.662;2022-07-04T06:34:30;137135.94;;;19.44;100.00
24651;BME280;12783;48.824;8.662;2022-07-04T06:37:15;133009.31;;;19.81;100.00
24651;BME280;12783;48.824;8.662;2022-07-04T06:39:42;132996.78;;;19.75;100.00
24651;BME280;12783;48.824;8.662;2022-07-04T06:42:09;136187.53;;;19.90;100.00
24651;BME280;12783;48.824;8.662;2022-07-04T06:44:35;136512.78;;;19.78;100.00
24651;BME280;12783;48.824;8.662;2022-07-04T06:47:02;137471.50;;;19.38;100.00
24651;BME280;12783;48.824;8.662;2022-07-04T06:49:29;143024.44;;;19.11;100.00
24651;BME280;12783;48.824;8.662;2022-07-04T06:51:56;144925.13;;;19.70;100.00
24651;BME280;12783;48.824;8.662;2022-07-04T06:54:23;134472.09;;;20.07;100.00
24651;BME280;12783;48.824;8.662;2022-07-04T06:56:50;133026.41;;;19.88;100.00
24651;BME280;12783;48.824;8.662;2022-07-04T06:59:37;132350.13;;;19.99;100.00
24651;BME280;12783;48.824;8.662;2022-07-04T07:02:04;135827.19;;;19.86;100.00
24651;BME280;12783;48.824;8.662;2022-07-04T07:04:31;134814.97;;;20.04;100.00
24651;BME280;12783;48.824;8.662;2022-07-04T07:06:58;134085.53;;;19.91;100.00
24651;BME280;12783;48.824;8.662;2022-07-04T07:09:25;131611.53;;;19.83;100.00
24651;BME280;12783;48.824;8.662;2022-07-04T07:11:52;131976.81;;;19.89;100.00
24651;BME280;12783;48.824;8.662;2022-07-04T07:14:18;134441.00;;;19.93;100.00
24651;BME280;12783;48.824;8.662;2022-07-04T07:16:45;136227.22;;;20.07;100.00
24651;BME280;12783;48.824;8.662;2022-07-04T07:19:12;137966.66;;;20.00;100.00
24651;BME280;12783;48.824;8.662;2022-07-04T07:21:39;138288.28;;;19.87;100.00
24651;BME280;12783;48.824;8.662;2022-07-04T07:24:06;138953.81;;;19.71;100.00
24651;BME280;12783;48.824;8.662;2022-07-04T07:26:33;140356.38;;;19.70;100.00
24651;BME280;12783;48.824;8.662;2022-07-04T07:28:59;144552.31;;;19.61;100.00
24651;BME280;12783;48.824;8.662;2022-07-04T07:31:26;143839.13;;;19.57;100.00
24651;BME280;12783;48.824;8.662;2022-07-04T07:33:53;141385.00;;;19.60;100.00
24651;BME280;12783;48.824;8.662;2022-07-04T07:36:20;147732.72;;;19.67;100.00
24651;BME280;12783;48.824;8.662;2022-07-04T07:38:47;142826.22;;;19.74;100.00
24651;BME280;12783;48.824;8.662;2022-07-04T07:41:14;140722.19;;;19.76;100.00
24651;BME280;12783;48.824;8.662;2022-07-04T07:43:41;146006.84;;;19.81;100.00
24651;BME280;12783;48.824;8.662;2022-07-04T07:46:08;144252.56;;;19.83;100.00
24651;BME280;12783;48.824;8.662;2022-07-04T07:48:35;142855.59;;;19.87;100.00
24651;BME280;12783;48.824;8.662;2022-07-04T07:51:02;147090.47;;;19.92;100.00
24651;BME280;12783;48.824;8.662;2022-07-04T07:53:29;139087.25;;;20.29;100.00
24651;BME280;12783;48.824;8.662;2022-07-04T07:55:56;140935.81;;;20.67;100.00
24651;BME280;12783;48.824;8.662;2022-07-04T07:58:23;125846.81;;;20.72;100.00
24651;BME280;12783;48.824;8.662;2022-07-04T08:00:50;126477.13;;;20.39;100.00
24651;BME280;12783;48.824;8.662;2022-07-04T08:03:23;133178.28;;;20.56;100.00
24651;BME280;12783;48.824;8.662;2022-07-04T08:06:09;138106.31;;;20.60;100.00
24651;BME280;12783;48.824;8.662;2022-07-04T08:08:36;137023.47;;;20.48;100.00
24651;BME280;12783;48.824;8.662;2022-07-04T08:11:04;137692.13;;;20.33;100.00
24651;BME280;12783;48.824;8.662;2022-07-04T08:13:31;139833.47;;;20.47;100.00
24651;BME280;12783;48.824;8.662;2022-07-04T08:15:58;139451.94;;;20.34;100.00
24651;BME280;12783;48.824;8.662;2022-07-04T08:18:25;132145.59;;;20.65;100.00
24651;BME280;12783;48.824;8.662;2022-07-04T08:20:52;135320.19;;;20.72;100.00
24651;BME280;12783;48.824;8.662;2022-07-04T08:23:33;133862.16;;;20.48;100.00
24651;BME280;12783;48.824;8.662;2022-07-04T08:26:00;132450.06;;;20.44;100.00
24651;BME280;12783;48.824;8.662;2022-07-04T08:28:28;133155.44;;;20.46;100.00
24651;BME280;12783;48.824;8.662;2022-07-04T08:30:56;133152.03;;;20.44;100.00
24651;BME280;12783;48.824;8.662;2022-07-04T08:33:24;132132.00;;;20.59;100.00
24651;BME280;12783;48.824;8.662;2022-07-04T08:35:51;129053.06;;;20.96;100.00
24651;BME280;12783;48.824;8.662;2022-07-04T08:38:20;123809.59;;;21.03;100.00
24651;BME280;12783;48.824;8.662;2022-07-04T08:40:49;127287.03;;;20.90;100.00
24651;BME280;12783;48.824;8.662;2022-07-04T08:43:18;131986.84;;;21.52;100.00
24651;BME280;12783;48.824;8.662;2022-07-04T08:45:49;123550.38;;;21.47;100.00
24651;BME280;12783;48.824;8.662;2022-07-04T08:48:42;117271.88;;;21.61;100.00
24651;BME280;12783;48.824;8.662;2022-07-04T08:51:15;112433.19;;;21.92;100.00
24651;BME280;12783;48.824;8.662;2022-07-04T08:53:52;105108.38;;;21.99;100.00
24651;BME280;12783;48.824;8.662;2022-07-04T08:56:21;109980.91;;;21.90;100.00
24651;BME280;12783;48.824;8.662;2022-07-04T08:59:07;102001.53;;;22.19;100.00
24651;BME280;12783;48.824;8.662;2022-07-04T09:01:35;97462.34;;;22.15;100.00
24651;BME280;12783;48.824;8.662;2022-07-04T09:04:04;96850.97;;;22.67;100.00
24651;BME280;12783;48.824;8.662;2022-07-04T09:06:31;96804.09;;;22.38;100.00
24651;BME280;12783;48.824;8.662;2022-07-04T09:08:59;94762.28;;;22.68;100.00
24651;BME280;12783;48.824;8.662;2022-07-04T09:11:26;89921.31;;;22.90;100.00
24651;BME280;12783;48.824;8.662;2022-07-04T09:13:53;92674.81;;;22.70;100.00
24651;BME280;12783;48.824;8.662;2022-07-04T09:16:20;78112.50;;;22.94;100.00
24651;BME280;12783;48.824;8.662;2022-07-04T09:18:47;77119.75;;;23.30;100.00
24651;BME280;12783;48.824;8.662;2022-07-04T09:21:13;80276.13;;;23.54;100.00
24651;BME280;12783;48.824;8.662;2022-07-04T09:23:42;70301.63;;;24.25;100.00
24651;BME280;12783;48.824;8.662;2022-07-04T09:26:21;38226.38;;;24.63;100.00
24651;BME280;12783;48.824;8.662;2022-07-04T09:28:57;45394.34;;;23.91;100.00
24651;BME280;12783;48.824;8.662;2022-07-04T09:31:29;45329.75;;;23.10;100.00
24651;BME280;12783;48.824;8.662;2022-07-04T09:33:59;8424.88;;;23.31;100.00
24651;BME280;12783;48.824;8.662;2022-07-04T09:36:31;16610.81;;;23.79;100.00
24651;BME280;12783;48.824;8.662;2022-07-04T09:42:02;10826.38;;;24.13;100.00
24651;BME280;12783;48.824;8.662;2022-07-04T09:47:23;34019.00;;;23.27;100.00
24651;BME280;12783;48.824;8.662;2022-07-04T09:50:11;51543.22;;;23.35;100.00
24651;BME280;12783;48.824;8.662;2022-07-04T09:53:00;47373.81;;;22.88;100.00
24651;BME280;12783;48.824;8.662;2022-07-04T09:55:33;42199.34;;;22.59;100.00
24651;BME280;12783;48.824;8.662;2022-07-04T09:58:07;28532.31;;;23.09;100.00
24651;BME280;12783;48.824;8.662;2022-07-04T10:00:41;18980.91;;;23.31;100.00
24651;BME280;12783;48.824;8.662;2022-07-04T10:03:27;37130.50;;;23.67;100.00
24651;BME280;12783;48.824;8.662;2022-07-04T10:06:12;29278.66;;;24.23;100.00
24651;BME280;12783;48.824;8.662;2022-07-04T10:08:43;28931.91;;;24.15;100.00
24651;BME280;12783;48.824;8.662;2022-07-04T10:11:11;14554.25;;;23.44;100.00
24651;BME280;12783;48.824;8.662;2022-07-04T10:13:45;24816.69;;;24.00;100.00
24651;BME280;12783;48.824;8.662;2022-07-04T10:16:15;-4466.97;;;24.69;100.00
24651;BME280;12783;48.824;8.662;2022-07-04T10:18:43;5041.25;;;24.19;100.00
24651;BME280;12783;48.824;8.662;2022-07-04T10:21:11;33439.31;;;24.99;100.00
24651;BME280;12783;48.824;8.662;2022-07-04T10:23:38;-6163.34;;;24.63;100.00
24651;BME280;12783;48.824;8.662;2022-07-04T10:26:05;6397.00;;;23.93;100.00
24651;BME280;12783;48.824;8.662;2022-07-04T10:28:33;6057.09;;;23.94;100.00
24651;BME280;12783;48.824;8.662;2022-07-04T10:31:00;35835.31;;;24.85;100.00
24651;BME280;12783;48.824;8.662;2022-07-04T10:33:28;18053.72;;;25.91;100.00
24651;BME280;12783;48.824;8.662;2022-07-04T10:36:18;-10241.53;;;26.03;100.00
24651;BME280;12783;48.824;8.662;2022-07-04T10:38:54;18057.88;;;26.02;100.00
24651;BME280;12783;48.824;8.662;2022-07-04T10:41:23;28650.41;;;25.29;100.00
24651;BME280;12783;48.824;8.662;2022-07-04T10:44:05;22443.13;;;24.45;100.00
24651;BME280;12783;48.824;8.662;2022-07-04T10:46:35;33716.28;;;23.92;100.00
24651;BME280;12783;48.824;8.662;2022-07-04T10:51:53;50219.06;;;23.95;100.00
24651;BME280;12783;48.824;8.662;2022-07-04T10:54:35;49552.66;;;24.21;100.00
24651;BME280;12783;48.824;8.662;2022-07-04T11:00:04;41690.00;;;24.96;100.00
24651;BME280;12783;48.824;8.662;2022-07-04T11:02:34;67878.38;;;24.28;100.00
24651;BME280;12783;48.824;8.662;2022-07-04T11:05:10;70218.50;;;23.56;100.00
24651;BME280;12783;48.824;8.662;2022-07-04T11:18:12;97055.16;;;23.92;100.00
24651;BME280;12783;48.824;8.662;2022-07-04T11:20:45;78219.47;;;23.74;100.00
24651;BME280;12783;48.824;8.662;2022-07-04T11:23:18;86664.72;;;24.42;100.00
24651;BME280;12783;48.824;8.662;2022-07-04T11:25:48;72739.09;;;24.32;100.00
24651;BME280;12783;48.824;8.662;2022-07-04T11:28:30;70957.41;;;23.94;100.00
24651;BME280;12783;48.824;8.662;2022-07-04T11:31:10;68573.44;;;24.30;100.00
24651;BME280;12783;48.824;8.662;2022-07-04T11:33:39;65459.50;;;24.34;100.00
24651;BME280;12783;48.824;8.662;2022-07-04T11:36:17;89475.19;;;24.55;100.00
24651;BME280;12783;48.824;8.662;2022-07-04T11:39:04;71340.97;;;24.24;100.00
24651;BME280;12783;48.824;8.662;2022-07-04T11:41:41;65819.81;;;24.46;100.00
24651;BME280;12783;48.824;8.662;2022-07-04T11:44:38;53790.19;;;25.26;100.00
24651;BME280;12783;48.824;8.662;2022-07-04T11:47:25;45896.97;;;25.86;100.00
24651;BME280;12783;48.824;8.662;2022-07-04T11:49:59;35925.13;;;26.23;100.00
24651;BME280;12783;48.824;8.662;2022-07-04T11:55:23;42428.94;;;25.62;100.00
24651;BME280;12783;48.824;8.662;2022-07-04T11:57:51;34837.47;;;25.37;100.00
24651;BME280;12783;48.824;8.662;2022-07-04T12:00:27;47194.88;;;24.86;100.00
24651;BME280;12783;48.824;8.662;2022-07-04T12:02:59;50304.84;;;24.92;100.00
24651;BME280;12783;48.824;8.662;2022-07-04T12:05:27;52107.41;;;25.76;100.00
24651;BME280;12783;48.824;8.662;2022-07-04T12:07:54;33199.00;;;26.68;100.00
24651;BME280;12783;48.824;8.662;2022-07-04T12:10:41;15314.63;;;25.87;100.00
24651;BME280;12783;48.824;8.662;2022-07-04T12:13:14;22846.63;;;25.83;100.00
24651;BME280;12783;48.824;8.662;2022-07-04T12:15:46;39016.94;;;26.10;100.00
24651;BME280;12783;48.824;8.662;2022-07-04T12:18:26;27667.09;;;26.16;100.00
24651;BME280;12783;48.824;8.662;2022-07-04T12:21:15;31508.44;;;27.21;100.00
24651;BME280;12783;48.824;8.662;2022-07-04T12:23:52;13968.66;;;26.59;100.00
24651;BME280;12783;48.824;8.662;2022-07-04T12:26:46;23892.72;;;26.21;100.00
24651;BME280;12783;48.824;8.662;2022-07-04T12:29:22;30400.53;;;25.89;100.00
24651;BME280;12783;48.824;8.662;2022-07-04T12:31:57;19768.81;;;25.98;100.00
24651;BME280;12783;48.824;8.662;2022-07-04T12:34:24;29346.81;;;25.47;100.00
24651;BME280;12783;48.824;8.662;2022-07-04T12:36:53;49025.03;;;26.09;100.00
24651;BME280;12783;48.824;8.662;2022-07-04T12:39:35;35222.63;;;26.01;100.00
24651;BME280;12783;48.824;8.662;2022-07-04T12:42:17;19099.13;;;26.38;100.00
24651;BME280;12783;48.824;8.662;2022-07-04T12:44:47;34244.03;;;26.87;100.00
24651;BME280;12783;48.824;8.662;2022-07-04T12:47:17;32486.19;;;26.28;100.00
24651;BME280;12783;48.824;8.662;2022-07-04T12:49:58;26317.47;;;26.65;100.00
24651;BME280;12783;48.824;8.662;2022-07-04T12:52:29;33861.41;;;26.26;100.00
24651;BME280;12783;48.824;8.662;2022-07-04T12:55:06;43524.19;;;26.41;100.00
24651;BME280;12783;48.824;8.662;2022-07-04T12:57:34;56317.88;;;26.36;100.00
24651;BME280;12783;48.824;8.662;2022-07-04T13:00:01;41769.34;;;26.02;100.00
24651;BME280;12783;48.824;8.662;2022-07-04T13:02:50;56244.84;;;25.61;100.00
24651;BME280;12783;48.824;8.662;2022-07-04T13:05:17;53559.16;;;26.49;100.00
24651;BME280;12783;48.824;8.662;2022-07-04T13:07:43;37976.56;;;26.00;100.00
24651;BME280;12783;48.824;8.662;2022-07-04T13:10:10;48650.94;;;25.76;100.00
24651;BME280;12783;48.824;8.662;2022-07-04T13:12:37;46573.53;;;25.69;100.00
24651;BME280;12783;48.824;8.662;2022-07-04T13:15:04;38978.50;;;25.55;100.00
24651;BME280;12783;48.824;8.662;2022-07-04T13:17:32;33088.41;;;24.87;100.00
24651;BME280;12783;48.824;8.662;2022-07-04T13:19:59;37931.69;;;25.35;100.00
24651;BME280;12783;48.824;8.662;2022-07-04T13:22:26;29031.34;;;25.98;100.00
24651;BME280;12783;48.824;8.662;2022-07-04T13:24:52;23187.16;;;25.78;100.00